Huvudsida
METAR-TAF:

METAR-TAF

Flygplatser :

Moss flygplats. Rygge

Rygge, Norge

latitud: 59-23N, longitud: 010-47E, höjd: 5 m

Aktuellt väderrapport

Denna rapport gjordes för 14 minuter sedan, klockan 19:20 UTC
Vind 6 kt från syd
Temperatur 22°C
Fuktighet 60%
Tryck 1018 hPa
Sikt 10 km eller mer

METAR: ENRY 251920Z AUTO 19006KT 9999NDV NCD 22/14 Q1018

Tid: 21:34 (19:34 UTC)

Väderprognos

Prognos gäller från 25 kl. 18 UTC till 26 kl. 18 UTC
Vind 5 kt varierande vindriktning
Sikt 10 km eller mer
Inga moln under 1 500 m eller inga cumulonimbus
Sannolikhet 40%
från 25 kl. 18 UTC till 25 kl. 20 UTC
Vind 10 kt från syd
Blir
från 26 kl. 10 UTC till 26 kl. 12 UTC
Vind 10 kt från syd

TAF: ENRY 2518/2618 VRB05KT CAVOK PROB40 2518/2520 19010KT BECMG 2610/2612 19010KT

Aktuella väderrapporter och prognoser från 4000 flygplatser (METAR- och TAF-rapporter).

De tillgängliga stationerna syns som gula och röda prickar på kartan.

För musen över prickarna för att se namnen på stationerna.

Klicka sedan för att få väderrapporter och prognoser.

För att ändra kartan: Klicka på de gröna knapparna med ett svart kors på för att zooma in; den gröna knappen med ett streck på för att zooma ut; eller på de gröna pilarna för angränsande kartor.


METAR-TAF: